Time;durP1;ratioP1;P1;durP2;ratioP2;P2;SDS_P1;SDS_P2;PMS_P1;PMS_P2;Temp;Humidity;BMP_temperature;BMP_pressure;BME280_temperature;BME280_humidity;BME280_pressure;Samples;Min_cycle;Max_cycle;Signal;HPM_P1;HPM_P2
2022/09/18 00:02:05;;;;;;;2.30;0.88;;;;;;;;;;6270414;22;20477;-66
2022/09/18 00:04:38;;;;;;;1.50;0.80;;;;;;;;;;6269451;22;20369;-66
2022/09/18 00:07:06;;;;;;;4.85;1.05;;;;;;;;;;6269550;22;20215;-66
2022/09/18 00:09:39;;;;;;;2.38;1.00;;;;;;;;;;6269846;22;20024;-66
2022/09/18 00:12:13;;;;;;;3.25;0.80;;;;;;;;;;6269819;22;20020;-58
2022/09/18 00:14:48;;;;;;;4.78;1.05;;;;;;;;;;6269384;22;20020;-52
2022/09/18 00:17:15;;;;;;;1.67;0.73;;;;;;;;;;6270802;22;20046;-67
2022/09/18 00:19:42;;;;;;;3.08;0.80;;;;;;;;;;6268516;22;20097;-67
2022/09/18 00:22:15;;;;;;;6.03;0.98;;;;;;;;;;6269812;22;20015;-66
2022/09/18 00:24:43;;;;;;;4.50;1.00;;;;;;;;;;6269913;22;20019;-66
2022/09/18 00:27:16;;;;;;;2.03;0.90;;;;;;;;;;6268345;22;20476;-66
2022/09/18 00:29:43;;;;;;;6.97;0.98;;;;;;;;;;6270221;22;20122;-66
2022/09/18 00:32:11;;;;;;;5.05;1.10;;;;;;;;;;6270075;22;20016;-62
2022/09/18 00:34:44;;;;;;;2.22;0.98;;;;;;;;;;6268638;22;20023;-58
2022/09/18 00:37:11;;;;;;;3.88;1.25;;;;;;;;;;6269743;22;20345;-56
2022/09/18 00:39:45;;;;;;;3.63;1.02;;;;;;;;;;6269921;22;20022;-59
2022/09/18 00:42:13;;;;;;;5.40;1.05;;;;;;;;;;6269483;22;20019;-57
2022/09/18 00:44:41;;;;;;;1.67;1.33;;;;;;;;;;6267902;22;20469;-57
2022/09/18 00:47:21;;;;;;;0.80;0.65;;;;;;;;;;6269352;22;20062;-60
2022/09/18 00:49:52;;;;;;;4.43;1.10;;;;;;;;;;6268649;22;20034;-46
2022/09/18 00:52:27;;;;;;;3.95;0.90;;;;;;;;;;6270497;22;20028;-57
2022/09/18 00:54:57;;;;;;;3.08;1.02;;;;;;;;;;6269643;22;20099;-60
2022/09/18 00:57:32;;;;;;;19.08;1.27;;;;;;;;;;6267830;22;20491;-60
2022/09/18 01:00:00;;;;;;;2.58;0.95;;;;;;;;;;6268440;22;20469;-59
2022/09/18 01:02:27;;;;;;;3.60;1.30;;;;;;;;;;6269661;22;20026;-60
2022/09/18 01:05:01;;;;;;;1.25;1.00;;;;;;;;;;6268823;22;20019;-59
2022/09/18 01:07:44;;;;;;;1.52;0.75;;;;;;;;;;6269148;22;20027;-60
2022/09/18 01:10:17;;;;;;;2.60;1.20;;;;;;;;;;6269627;22;20024;-59
2022/09/18 01:12:58;;;;;;;1.55;0.95;;;;;;;;;;6267799;22;20028;-60
2022/09/18 01:15:33;;;;;;;2.70;1.02;;;;;;;;;;6269644;22;20083;-60
2022/09/18 01:18:20;;;;;;;1.60;0.90;;;;;;;;;;6269692;22;20020;-60
2022/09/18 01:20:57;;;;;;;5.45;0.85;;;;;;;;;;6268925;22;20055;-60
2022/09/18 01:23:42;;;;;;;3.85;1.30;;;;;;;;;;6268949;22;20103;-59
2022/09/18 01:26:35;;;;;;;3.25;0.75;;;;;;;;;;6269250;22;20020;-61
2022/09/18 01:29:13;;;;;;;2.65;0.90;;;;;;;;;;6268472;22;20030;-66
2022/09/18 01:31:46;;;;;;;5.63;1.10;;;;;;;;;;6269966;22;20094;-59
2022/09/18 01:34:24;;;;;;;33.35;1.35;;;;;;;;;;6270422;22;20348;-58
2022/09/18 01:36:53;;;;;;;5.43;1.02;;;;;;;;;;6270989;22;20020;-57
2022/09/18 01:39:31;;;;;;;2.63;0.93;;;;;;;;;;6270911;22;20030;-59
2022/09/18 01:41:59;;;;;;;2.85;0.70;;;;;;;;;;6271453;22;20095;-57
2022/09/18 01:44:33;;;;;;;3.17;1.02;;;;;;;;;;6271772;22;20498;-58
2022/09/18 01:47:00;;;;;;;;;;;;;;;;;;6270321;22;20038;-60
2022/09/18 01:49:32;;;;;;;1.95;1.00;;;;;;;;;;6270705;22;19919;-70
2022/09/18 01:52:08;;;;;;;8.82;1.30;;;;;;;;;;6271536;22;20023;-55
2022/09/18 01:54:38;;;;;;;1.90;0.90;;;;;;;;;;6271216;22;20112;-55
2022/09/18 01:57:17;;;;;;;1.25;0.60;;;;;;;;;;6270914;22;20016;-56
2022/09/18 01:59:48;;;;;;;0.60;0.60;;;;;;;;;;6270669;22;20026;-55
2022/09/18 02:02:27;;;;;;;1.80;0.80;;;;;;;;;;6272366;22;20503;-55
2022/09/18 02:04:59;;;;;;;1.55;0.60;;;;;;;;;;6269464;22;20024;-56
2022/09/18 02:07:58;;;;;;;2.33;0.73;;;;;;;;;;6271488;22;20043;-71
2022/09/18 02:10:26;;;;;;;1.83;0.65;;;;;;;;;;6244251;22;20042;-56
2022/09/18 02:13:08;;;;;;;8.70;0.73;;;;;;;;;;6270564;22;20020;-56
2022/09/18 02:15:37;;;;;;;83.55;3.83;;;;;;;;;;6269681;22;20032;-56
2022/09/18 02:18:15;;;;;;;52.58;2.25;;;;;;;;;;6270497;22;20015;-59
2022/09/18 02:20:50;;;;;;;49.17;2.08;;;;;;;;;;6246100;22;20055;-59
2022/09/18 02:23:25;;;;;;;16.38;1.35;;;;;;;;;;6271358;22;20020;-58
2022/09/18 02:25:52;;;;;;;;;;;;;;;;;;6269762;22;20098;-60
2022/09/18 02:28:27;;;;;;;1.33;0.65;;;;;;;;;;6270980;22;19926;-62
2022/09/18 02:30:54;;;;;;;0.70;0.68;;;;;;;;;;6270488;22;20022;-46
2022/09/18 02:33:35;;;;;;;4.43;0.85;;;;;;;;;;6270968;22;20028;-46
2022/09/18 02:36:09;;;;;;;0.57;0.57;;;;;;;;;;6271487;22;20020;-49
2022/09/18 02:38:53;;;;;;;4.63;0.75;;;;;;;;;;6270581;22;20020;-48
2022/09/18 02:41:26;;;;;;;1.83;0.90;;;;;;;;;;6267396;22;20046;-47
2022/09/18 02:44:03;;;;;;;3.88;0.80;;;;;;;;;;6270251;22;20026;-65
2022/09/18 02:46:30;;;;;;;5.18;1.02;;;;;;;;;;6269551;22;20413;-63
2022/09/18 02:49:16;;;;;;;2.78;1.10;;;;;;;;;;6270535;22;20031;-47
2022/09/18 02:51:50;;;;;;;1.92;0.93;;;;;;;;;;6271181;22;20027;-47
2022/09/18 02:54:26;;;;;;;1.50;0.80;;;;;;;;;;6270587;22;20531;-48
2022/09/18 02:57:02;;;;;;;0.90;0.60;;;;;;;;;;6271602;22;20020;-51
2022/09/18 02:59:32;;;;;;;2.83;0.68;;;;;;;;;;6268826;22;20106;-47
2022/09/18 03:02:06;;;;;;;2.58;0.70;;;;;;;;;;6270703;22;20054;-46
2022/09/18 03:04:34;;;;;;;4.97;0.70;;;;;;;;;;6269570;22;20030;-65
2022/09/18 03:07:08;;;;;;;2.05;1.02;;;;;;;;;;6270963;22;20051;-60
2022/09/18 03:09:36;;;;;;;1.77;0.70;;;;;;;;;;6270033;22;20022;-60
2022/09/18 03:12:03;;;;;;;0.50;0.50;;;;;;;;;;6270027;22;20020;-61
2022/09/18 03:14:43;;;;;;;1.52;0.75;;;;;;;;;;6268814;22;20137;-61
2022/09/18 03:17:10;;;;;;;4.88;0.82;;;;;;;;;;6268848;22;20074;-60
2022/09/18 03:19:48;;;;;;;2.22;0.63;;;;;;;;;;6270049;22;20085;-60
2022/09/18 03:22:15;;;;;;;4.68;0.70;;;;;;;;;;6270090;22;20095;-53
2022/09/18 03:24:42;;;;;;;2.72;0.95;;;;;;;;;;6270087;22;20420;-51
2022/09/18 03:27:18;;;;;;;16.60;1.20;;;;;;;;;;6270647;22;20030;-51
2022/09/18 03:29:45;;;;;;;104.80;5.32;;;;;;;;;;6269807;22;20023;-51
2022/09/18 03:32:20;;;;;;;4.10;0.65;;;;;;;;;;6270472;22;20035;-49
2022/09/18 03:34:47;;;;;;;1.08;0.70;;;;;;;;;;6269184;22;20022;-53
2022/09/18 03:37:14;;;;;;;1.75;0.65;;;;;;;;;;6270332;22;20045;-48
2022/09/18 03:39:49;;;;;;;0.60;0.60;;;;;;;;;;6269567;22;20026;-48
2022/09/18 03:42:16;;;;;;;2.15;0.80;;;;;;;;;;6269755;22;20023;-61
2022/09/18 03:44:50;;;;;;;1.13;0.63;;;;;;;;;;6269178;22;20473;-59
2022/09/18 03:47:17;;;;;;;1.05;0.50;;;;;;;;;;6268796;22;20365;-58
2022/09/18 03:49:44;;;;;;;2.22;0.70;;;;;;;;;;6269316;22;20027;-56
2022/09/18 03:52:18;;;;;;;0.60;0.55;;;;;;;;;;6270340;22;20023;-57
2022/09/18 03:54:45;;;;;;;0.50;0.50;;;;;;;;;;6267572;22;20023;-57
2022/09/18 03:57:14;;;;;;;3.15;0.85;;;;;;;;;;6270040;22;20020;-59
2022/09/18 03:59:47;;;;;;;1.70;0.60;;;;;;;;;;6244285;22;20024;-57
2022/09/18 04:02:15;;;;;;;1.95;0.70;;;;;;;;;;6268030;22;20485;-61
2022/09/18 04:04:52;;;;;;;2.72;1.00;;;;;;;;;;6269779;22;20020;-60
2022/09/18 04:07:20;;;;;;;0.90;0.60;;;;;;;;;;6270354;22;20103;-60
2022/09/18 04:09:47;;;;;;;0.90;0.77;;;;;;;;;;6269964;22;20030;-60
2022/09/18 04:12:27;;;;;;;3.30;0.80;;;;;;;;;;6268617;22;20015;-60
2022/09/18 04:15:01;;;;;;;1.90;1.00;;;;;;;;;;6270056;22;20030;-60
2022/09/18 04:17:36;;;;;;;1.40;0.90;;;;;;;;;;6269320;22;20364;-60
2022/09/18 04:20:04;;;;;;;1.73;1.13;;;;;;;;;;6269790;22;20028;-53
2022/09/18 04:22:31;;;;;;;3.53;1.05;;;;;;;;;;6269102;22;20091;-47
2022/09/18 04:25:05;;;;;;;5.03;1.00;;;;;;;;;;6268293;22;20027;-57
2022/09/18 04:27:33;;;;;;;6.38;1.00;;;;;;;;;;6269227;22;20381;-58
2022/09/18 04:30:08;;;;;;;2.00;0.70;;;;;;;;;;6270171;22;20026;-58
2022/09/18 04:32:35;;;;;;;;;;;;;;;;;;6270033;22;20049;-56
2022/09/18 04:35:02;;;;;;;3.22;0.60;;;;;;;;;;6268857;22;19990;-59
2022/09/18 04:37:36;;;;;;;4.68;0.90;;;;;;;;;;6269198;22;20030;-58
2022/09/18 04:40:04;;;;;;;1.77;0.60;;;;;;;;;;6269425;22;20049;-46
2022/09/18 04:42:40;;;;;;;9.20;0.93;;;;;;;;;;6269648;22;20055;-64
2022/09/18 04:45:07;;;;;;;1.08;0.77;;;;;;;;;;6269981;22;20078;-65
2022/09/18 04:47:34;;;;;;;;;;;;;;;;;;6269624;22;20560;-65
2022/09/18 04:50:09;;;;;;;0.75;0.70;;;;;;;;;;6271247;22;19919;-65
2022/09/18 04:52:37;;;;;;;1.25;0.63;;;;;;;;;;6270748;22;20020;-64
2022/09/18 04:55:10;;;;;;;4.05;0.68;;;;;;;;;;6269627;22;20024;-65
2022/09/18 04:57:46;;;;;;;2.80;0.85;;;;;;;;;;6269356;22;20740;-52
2022/09/18 05:00:20;;;;;;;1.98;0.77;;;;;;;;;;6269908;22;20020;-56
2022/09/18 05:02:48;;;;;;;2.15;1.00;;;;;;;;;;6268945;22;20062;-51
2022/09/18 05:05:15;;;;;;;0.52;0.52;;;;;;;;;;6269638;22;20019;-51
2022/09/18 05:07:48;;;;;;;2.22;0.82;;;;;;;;;;6271011;22;20026;-54
2022/09/18 05:10:16;;;;;;;0.60;0.60;;;;;;;;;;6273172;22;20435;-52
2022/09/18 05:12:49;;;;;;;4.15;0.80;;;;;;;;;;6271549;22;20067;-55
2022/09/18 05:15:30;;;;;;;1.02;0.85;;;;;;;;;;6272143;22;20411;-53
2022/09/18 05:17:59;;;;;;;1.67;0.90;;;;;;;;;;6271923;22;20034;-57
2022/09/18 05:20:41;;;;;;;6.47;0.93;;;;;;;;;;6270408;22;20766;-51
2022/09/18 05:23:08;;;;;;;3.67;0.70;;;;;;;;;;6272127;22;20019;-49
2022/09/18 05:25:42;;;;;;;2.35;0.80;;;;;;;;;;6269872;22;20356;-48
2022/09/18 05:28:10;;;;;;;;;;;;;;;;;;6272260;22;20019;-47
2022/09/18 05:30:37;;;;;;;2.85;0.90;;;;;;;;;;6271039;22;19919;-47
2022/09/18 05:33:11;;;;;;;2.97;0.95;;;;;;;;;;6271818;22;20090;-46
2022/09/18 05:35:45;;;;;;;1.33;0.77;;;;;;;;;;6269486;22;20057;-63
2022/09/18 05:38:21;;;;;;;1.25;0.73;;;;;;;;;;6272053;22;20023;-62
2022/09/18 05:40:49;;;;;;;3.25;0.63;;;;;;;;;;6271603;22;20081;-46
2022/09/18 05:43:21;;;;;;;0.45;0.45;;;;;;;;;;6243650;22;20360;-49
2022/09/18 05:45:55;;;;;;;0.50;0.50;;;;;;;;;;6269929;22;20020;-47
2022/09/18 05:48:22;;;;;;;0.40;0.40;;;;;;;;;;6271277;22;20034;-46
2022/09/18 05:50:50;;;;;;;1.85;0.40;;;;;;;;;;6270870;22;20026;-46
2022/09/18 05:53:25;;;;;;;1.30;0.60;;;;;;;;;;6270017;22;20483;-47
2022/09/18 05:55:52;;;;;;;0.88;0.50;;;;;;;;;;6272624;22;20461;-58
2022/09/18 05:58:26;;;;;;;0.63;0.63;;;;;;;;;;6272678;22;20023;-61
2022/09/18 06:00:55;;;;;;;0.60;0.60;;;;;;;;;;6271414;22;20476;-60
2022/09/18 06:03:23;;;;;;;0.73;0.43;;;;;;;;;;6272906;22;20357;-59
2022/09/18 06:05:56;;;;;;;2.63;0.63;;;;;;;;;;6272106;22;20303;-59
2022/09/18 06:08:23;;;;;;;0.95;0.38;;;;;;;;;;6267665;22;20020;-60
2022/09/18 06:10:59;;;;;;;0.85;0.55;;;;;;;;;;6272014;22;20026;-60
2022/09/18 06:13:27;;;;;;;0.60;0.55;;;;;;;;;;6271345;22;20026;-59
2022/09/18 06:16:00;;;;;;;2.65;0.60;;;;;;;;;;6272847;22;20038;-59
2022/09/18 06:18:34;;;;;;;2.95;0.68;;;;;;;;;;6271123;22;20034;-48
2022/09/18 06:21:09;;;;;;;5.30;0.90;;;;;;;;;;6268634;22;20461;-53
2022/09/18 06:23:36;;;;;;;1.35;0.73;;;;;;;;;;6266491;22;20103;-49
2022/09/18 06:26:05;;;;;;;4.78;0.80;;;;;;;;;;6271094;22;20451;-47
2022/09/18 06:28:48;;;;;;;1.05;0.63;;;;;;;;;;6270195;22;20030;-48
2022/09/18 06:31:19;;;;;;;2.83;0.77;;;;;;;;;;6243392;22;20016;-46
2022/09/18 06:33:53;;;;;;;1.58;0.68;;;;;;;;;;6269893;22;20069;-47
2022/09/18 06:36:20;;;;;;;3.53;1.08;;;;;;;;;;6272698;22;20365;-46
2022/09/18 06:38:49;;;;;;;2.63;2.03;;;;;;;;;;6269483;22;20015;-47
2022/09/18 06:41:23;;;;;;;5.10;2.83;;;;;;;;;;6270804;22;20094;-47
2022/09/18 06:43:50;;;;;;;;;;;;;;;;;;6268703;22;20019;-46
2022/09/18 06:46:24;;;;;;;0.90;0.70;;;;;;;;;;6270850;22;19926;-50
2022/09/18 06:48:51;;;;;;;3.03;1.40;;;;;;;;;;6271248;22;20027;-47
2022/09/18 06:51:18;;;;;;;4.00;1.13;;;;;;;;;;6268959;22;20026;-64
2022/09/18 06:53:52;;;;;;;2.28;1.27;;;;;;;;;;6271430;22;20020;-64
2022/09/18 06:56:19;;;;;;;1.60;1.30;;;;;;;;;;6270430;22;20020;-64
2022/09/18 06:58:52;;;;;;;3.45;2.03;;;;;;;;;;6271835;22;20517;-64
2022/09/18 07:01:20;;;;;;;33.92;23.27;;;;;;;;;;6267987;22;20357;-65
2022/09/18 07:03:47;;;;;;;41.50;31.38;;;;;;;;;;6271976;22;20094;-64
2022/09/18 07:06:21;;;;;;;19.05;16.83;;;;;;;;;;6270153;22;20098;-65
2022/09/18 07:08:49;;;;;;;6.78;4.00;;;;;;;;;;6271596;22;20020;-65
2022/09/18 07:11:18;;;;;;;3.80;2.97;;;;;;;;;;6271422;22;20019;-59
2022/09/18 07:13:59;;;;;;;2.60;1.90;;;;;;;;;;6269350;22;20491;-69
2022/09/18 07:16:26;;;;;;;2.13;1.80;;;;;;;;;;6269770;22;20031;-60
2022/09/18 07:19:01;;;;;;;1.88;1.38;;;;;;;;;;6270863;22;20027;-60
2022/09/18 07:21:29;;;;;;;1.77;1.35;;;;;;;;;;6269667;22;20019;-59
2022/09/18 07:23:56;;;;;;;1.92;1.50;;;;;;;;;;6265733;22;20469;-60
2022/09/18 07:26:30;;;;;;;3.53;1.92;;;;;;;;;;6267599;22;20020;-60
2022/09/18 07:28:58;;;;;;;1.60;1.50;;;;;;;;;;6240840;22;20463;-60
2022/09/18 07:31:36;;;;;;;1.90;1.40;;;;;;;;;;6270432;22;20038;-65
2022/09/18 07:34:03;;;;;;;3.58;1.48;;;;;;;;;;6271699;22;20028;-64
2022/09/18 07:36:38;;;;;;;2.17;1.55;;;;;;;;;;6269417;22;20070;-64
2022/09/18 07:39:19;;;;;;;3.17;1.42;;;;;;;;;;6269063;22;20728;-64
2022/09/18 07:41:53;;;;;;;3.78;1.30;;;;;;;;;;6270414;22;20094;-64
2022/09/18 07:44:34;;;;;;;2.97;1.38;;;;;;;;;;6267306;22;20045;-64
2022/09/18 07:47:02;;;;;;;2.63;1.25;;;;;;;;;;6244351;22;20131;-64
2022/09/18 07:49:37;;;;;;;3.03;1.48;;;;;;;;;;6270769;22;20100;-64
2022/09/18 07:52:05;;;;;;;3.05;1.52;;;;;;;;;;6267405;22;20016;-50
2022/09/18 07:54:32;;;;;;;;;;;;;;;;;;6268340;22;20536;-64
2022/09/18 07:57:05;;;;;;;3.13;1.30;;;;;;;;;;6264489;22;19926;-64
2022/09/18 07:59:33;;;;;;;2.30;1.52;;;;;;;;;;6266509;22;20364;-64
2022/09/18 08:02:07;;;;;;;1.25;1.15;;;;;;;;;;6270601;22;20026;-64
2022/09/18 08:04:34;;;;;;;8.02;1.30;;;;;;;;;;6269222;22;20026;-64
2022/09/18 08:07:03;;;;;;;7.28;1.70;;;;;;;;;;6270311;22;20106;-64
2022/09/18 08:09:36;;;;;;;1.60;1.17;;;;;;;;;;6270563;22;20034;-64
2022/09/18 08:12:10;;;;;;;3.38;1.50;;;;;;;;;;6269990;22;20731;-46
2022/09/18 08:14:50;;;;;;;2.67;1.25;;;;;;;;;;6269335;22;20027;-48
2022/09/18 08:17:17;;;;;;;2.15;1.10;;;;;;;;;;6269252;22;20122;-49
2022/09/18 08:19:52;;;;;;;2.35;1.30;;;;;;;;;;6269424;22;20022;-48
2022/09/18 08:22:25;;;;;;;1.17;1.00;;;;;;;;;;6270088;22;20030;-48
2022/09/18 08:25:00;;;;;;;1.45;1.10;;;;;;;;;;6271316;22;20019;-48
2022/09/18 08:27:37;;;;;;;2.10;1.15;;;;;;;;;;6269166;22;20024;-56
2022/09/18 08:30:12;;;;;;;2.97;0.95;;;;;;;;;;6266507;22;20024;-65
2022/09/18 08:32:39;;;;;;;0.85;0.77;;;;;;;;;;6269559;22;20016;-64
2022/09/18 08:35:07;;;;;;;4.47;0.85;;;;;;;;;;6269435;22;20266;-65
2022/09/18 08:37:46;;;;;;;1.38;0.90;;;;;;;;;;6270079;22;20536;-65
2022/09/18 08:40:26;;;;;;;0.50;0.50;;;;;;;;;;6270531;22;20047;-64
2022/09/18 08:43:01;;;;;;;1.45;1.08;;;;;;;;;;6269029;22;20785;-65
2022/09/18 08:45:49;;;;;;;0.85;0.60;;;;;;;;;;6269956;22;20026;-65
2022/09/18 08:48:33;;;;;;;1.15;0.98;;;;;;;;;;6267971;22;20030;-72
2022/09/18 08:51:27;;;;;;;1.52;0.77;;;;;;;;;;6268850;22;20016;-65
2022/09/18 08:53:57;;;;;;;5.25;1.15;;;;;;;;;;6243924;22;20016;-65
2022/09/18 08:56:32;;;;;;;1.88;0.90;;;;;;;;;;6268624;22;20019;-65
2022/09/18 08:59:04;;;;;;;1.85;0.75;;;;;;;;;;6268590;22;20030;-65
2022/09/18 09:01:42;;;;;;;2.78;0.90;;;;;;;;;;6267242;22;20020;-65
2022/09/18 09:04:13;;;;;;;1.95;1.00;;;;;;;;;;6267283;22;20400;-65
2022/09/18 09:06:53;;;;;;;2.17;0.93;;;;;;;;;;6267301;22;20028;-59
2022/09/18 09:09:28;;;;;;;0.73;0.73;;;;;;;;;;6270721;22;20046;-65
2022/09/18 09:12:15;;;;;;;1.45;0.70;;;;;;;;;;6271548;22;20041;-65
2022/09/18 09:14:55;;;;;;;1.67;0.57;;;;;;;;;;6268872;22;20473;-65
2022/09/18 09:17:29;;;;;;;2.55;0.88;;;;;;;;;;6270665;22;20023;-65
2022/09/18 09:20:06;;;;;;;0.52;0.35;;;;;;;;;;6269641;22;20122;-65
2022/09/18 09:23:00;;;;;;;0.30;0.30;;;;;;;;;;6270769;22;20417;-65
2022/09/18 09:25:31;;;;;;;2.92;0.57;;;;;;;;;;6271135;22;20020;-73
2022/09/18 09:28:16;;;;;;;2.30;0.43;;;;;;;;;;6269972;22;20094;-59
2022/09/18 09:30:45;;;;;;;2.05;0.88;;;;;;;;;;6242384;22;20034;-57
2022/09/18 09:33:38;;;;;;;1.40;0.50;;;;;;;;;;6245001;22;20477;-58
2022/09/18 09:36:14;;;;;;;1.27;0.63;;;;;;;;;;6270035;22;20020;-59
2022/09/18 09:38:47;;;;;;;1.05;0.45;;;;;;;;;;6271017;22;20091;-58
2022/09/18 09:41:20;;;;;;;0.70;0.52;;;;;;;;;;6269642;22;20019;-57
2022/09/18 09:43:55;;;;;;;3.13;0.40;;;;;;;;;;6270154;22;20027;-58
2022/09/18 09:46:48;;;;;;;0.30;0.30;;;;;;;;;;6269150;22;20019;-57
2022/09/18 09:49:36;;;;;;;1.98;0.68;;;;;;;;;;6270562;22;20070;-55
2022/09/18 09:52:24;;;;;;;0.52;0.47;;;;;;;;;;6270197;22;20022;-51
2022/09/18 09:55:07;;;;;;;0.63;0.40;;;;;;;;;;6270476;22;20019;-56
2022/09/18 09:57:51;;;;;;;0.57;0.50;;;;;;;;;;6271248;22;20118;-56
2022/09/18 10:00:19;;;;;;;2.80;0.55;;;;;;;;;;6272457;22;20019;-55
2022/09/18 10:03:04;;;;;;;2.35;0.50;;;;;;;;;;6272083;22;20030;-46
2022/09/18 10:05:34;;;;;;;0.45;0.40;;;;;;;;;;6270779;22;20334;-54
2022/09/18 10:08:10;;;;;;;0.80;0.47;;;;;;;;;;6273350;22;20020;-55
2022/09/18 10:11:01;;;;;;;0.73;0.65;;;;;;;;;;6272497;22;20032;-57
2022/09/18 10:13:54;;;;;;;0.60;0.45;;;;;;;;;;6257254;22;20026;-57
2022/09/18 10:16:34;;;;;;;1.25;0.63;;;;;;;;;;6272224;22;20094;-53
2022/09/18 10:19:13;;;;;;;0.40;0.40;;;;;;;;;;6271385;22;20028;-57
2022/09/18 10:21:41;;;;;;;0.40;0.40;;;;;;;;;;6272107;22;20543;-47
2022/09/18 10:24:24;;;;;;;1.65;0.40;;;;;;;;;;6273118;22;20106;-66
2022/09/18 10:26:53;;;;;;;0.68;0.22;;;;;;;;;;6271422;22;20015;-49
2022/09/18 10:29:33;;;;;;;2.05;0.43;;;;;;;;;;6268533;22;20030;-52
2022/09/18 10:32:03;;;;;;;1.15;0.50;;;;;;;;;;6271832;22;20338;-50
2022/09/18 10:34:36;;;;;;;0.40;0.38;;;;;;;;;;6271516;22;20592;-49
2022/09/18 10:37:05;;;;;;;2.78;0.52;;;;;;;;;;6271622;22;20458;-49
2022/09/18 10:39:33;;;;;;;0.43;0.40;;;;;;;;;;6270045;22;20019;-51
2022/09/18 10:42:13;;;;;;;0.73;0.60;;;;;;;;;;6271838;22;20023;-59
2022/09/18 10:44:52;;;;;;;0.47;0.45;;;;;;;;;;6244773;22;20037;-55
2022/09/18 10:47:25;;;;;;;;;;;;;;;;;;6271530;22;20085;-52
2022/09/18 10:50:11;;;;;;;1.88;0.85;;;;;;;;;;6271196;22;19961;-56
2022/09/18 10:52:45;;;;;;;2.22;1.20;;;;;;;;;;6270278;22;20032;-57
2022/09/18 10:55:20;;;;;;;4.00;1.13;;;;;;;;;;6271736;22;20099;-53
2022/09/18 10:57:48;;;;;;;4.18;1.13;;;;;;;;;;6271428;22;20019;-57
2022/09/18 11:00:25;;;;;;;1.02;0.85;;;;;;;;;;6269409;22;20425;-54
2022/09/18 11:02:56;;;;;;;4.03;1.02;;;;;;;;;;6271401;22;20492;-76
2022/09/18 11:05:30;;;;;;;2.30;0.90;;;;;;;;;;6269612;22;20030;-66
2022/09/18 11:07:59;;;;;;;1.75;1.08;;;;;;;;;;6272054;22;20026;-66
2022/09/18 11:10:27;;;;;;;2.38;1.10;;;;;;;;;;6270133;22;20101;-66
2022/09/18 11:13:08;;;;;;;0.80;0.80;;;;;;;;;;6270389;22;20027;-65
2022/09/18 11:15:49;;;;;;;1.98;0.85;;;;;;;;;;6271511;22;20473;-66
2022/09/18 11:18:24;;;;;;;0.73;0.50;;;;;;;;;;6268041;22;20024;-65
2022/09/18 11:20:52;;;;;;;1.58;0.80;;;;;;;;;;6272178;22;20046;-61
2022/09/18 11:23:27;;;;;;;0.73;0.68;;;;;;;;;;6270610;22;20023;-66
2022/09/18 11:26:13;;;;;;;2.38;1.30;;;;;;;;;;6271256;22;20479;-65
2022/09/18 11:29:04;;;;;;;1.98;1.27;;;;;;;;;;6270533;22;20540;-66
2022/09/18 11:31:52;;;;;;;2.33;1.20;;;;;;;;;;6268402;22;20310;-66
2022/09/18 11:34:38;;;;;;;2.63;1.65;;;;;;;;;;6268406;22;20082;-66
2022/09/18 11:37:08;;;;;;;3.10;1.33;;;;;;;;;;6269939;22;20030;-76
2022/09/18 11:39:44;;;;;;;2.95;1.45;;;;;;;;;;6270494;22;20028;-65
2022/09/18 11:42:15;;;;;;;3.72;1.00;;;;;;;;;;6269777;22;20548;-77
2022/09/18 11:44:49;;;;;;;2.17;0.88;;;;;;;;;;6269944;22;20123;-77
2022/09/18 11:47:16;;;;;;;1.90;0.73;;;;;;;;;;6269582;22;20050;-77
2022/09/18 11:49:45;;;;;;;2.05;0.73;;;;;;;;;;6270474;22;20024;-77
2022/09/18 11:52:29;;;;;;;0.40;0.40;;;;;;;;;;6271401;22;20027;-76
2022/09/18 11:55:03;;;;;;;0.60;0.60;;;;;;;;;;6270433;22;20030;-77
2022/09/18 11:57:38;;;;;;;2.35;0.50;;;;;;;;;;6270018;22;20023;-59
2022/09/18 12:00:13;;;;;;;1.55;0.57;;;;;;;;;;6267211;22;20094;-47
2022/09/18 12:02:53;;;;;;;3.35;0.40;;;;;;;;;;6268515;22;20022;-47
2022/09/18 12:05:23;;;;;;;0.43;0.43;;;;;;;;;;6267815;22;20027;-52
2022/09/18 12:08:15;;;;;;;0.43;0.43;;;;;;;;;;6268932;22;20020;-51
2022/09/18 12:10:48;;;;;;;1.00;0.40;;;;;;;;;;6267218;22;20031;-51
2022/09/18 12:13:31;;;;;;;1.52;0.55;;;;;;;;;;6265217;22;20019;-49
2022/09/18 12:16:17;;;;;;;0.80;0.50;;;;;;;;;;6242499;22;20408;-66
2022/09/18 12:18:54;;;;;;;1.75;0.50;;;;;;;;;;6270302;22;20019;-53
2022/09/18 12:21:27;;;;;;;1.13;0.52;;;;;;;;;;6268392;22;20352;-48
2022/09/18 12:24:01;;;;;;;0.80;0.40;;;;;;;;;;6269843;22;20024;-49
2022/09/18 12:26:44;;;;;;;0.52;0.50;;;;;;;;;;6264901;22;20024;-48
2022/09/18 12:29:25;;;;;;;1.08;0.40;;;;;;;;;;6270237;22;20023;-52
2022/09/18 12:31:55;;;;;;;0.57;0.40;;;;;;;;;;6268539;22;20030;-52
2022/09/18 12:34:47;;;;;;;0.95;0.38;;;;;;;;;;6270442;22;20452;-59
2022/09/18 12:37:14;;;;;;;0.60;0.40;;;;;;;;;;6267916;22;20027;-58
2022/09/18 12:39:51;;;;;;;0.63;0.45;;;;;;;;;;6269197;22;20028;-57
2022/09/18 12:42:18;;;;;;;1.58;0.63;;;;;;;;;;6270288;22;20039;-56
2022/09/18 12:44:58;;;;;;;0.35;0.32;;;;;;;;;;6268284;22;20022;-57
2022/09/18 12:47:32;;;;;;;0.43;0.30;;;;;;;;;;6267598;22;20059;-55
2022/09/18 12:49:59;;;;;;;0.88;0.30;;;;;;;;;;6269196;22;20448;-57
2022/09/18 12:52:48;;;;;;;0.98;0.30;;;;;;;;;;6269153;22;20024;-57
2022/09/18 12:55:38;;;;;;;0.20;0.20;;;;;;;;;;6269530;22;20800;-57
2022/09/18 12:58:31;;;;;;;0.40;0.30;;;;;;;;;;6270554;22;20103;-48
2022/09/18 13:01:02;;;;;;;1.55;0.30;;;;;;;;;;6269534;22;20382;-50
2022/09/18 13:03:39;;;;;;;0.52;0.30;;;;;;;;;;6270090;22;20020;-48
2022/09/18 13:06:10;;;;;;;0.20;0.20;;;;;;;;;;6268661;22;20016;-48
2022/09/18 13:08:53;;;;;;;0.27;0.27;;;;;;;;;;6268049;22;20314;-50
2022/09/18 13:11:31;;;;;;;0.17;0.17;;;;;;;;;;6268002;22;20028;-47
2022/09/18 13:14:17;;;;;;;0.20;0.20;;;;;;;;;;6267451;22;20349;-46
2022/09/18 13:16:45;;;;;;;0.45;0.32;;;;;;;;;;6267418;22;20103;-56
2022/09/18 13:19:27;;;;;;;0.45;0.20;;;;;;;;;;6268821;22;20027;-53
2022/09/18 13:21:55;;;;;;;1.75;0.30;;;;;;;;;;6268108;22;20027;-57
2022/09/18 13:24:34;;;;;;;0.35;0.32;;;;;;;;;;6269980;22;20026;-56
2022/09/18 13:27:02;;;;;;;1.95;0.25;;;;;;;;;;6269407;22;20345;-52
2022/09/18 13:29:55;;;;;;;1.00;0.35;;;;;;;;;;6267315;22;20028;-53
2022/09/18 13:32:32;;;;;;;0.30;0.30;;;;;;;;;;6271500;22;20058;-55
2022/09/18 13:35:06;;;;;;;0.38;0.38;;;;;;;;;;6269802;22;20027;-65
2022/09/18 13:37:40;;;;;;;0.20;0.20;;;;;;;;;;6270896;22;20094;-75
2022/09/18 13:40:32;;;;;;;0.30;0.30;;;;;;;;;;6270614;22;20034;-75
2022/09/18 13:43:18;;;;;;;0.75;0.30;;;;;;;;;;6272436;22;20461;-75
2022/09/18 13:45:45;;;;;;;0.77;0.32;;;;;;;;;;6270344;22;20507;-74
2022/09/18 13:48:39;;;;;;;0.85;0.43;;;;;;;;;;6269907;22;20465;-74
2022/09/18 13:51:17;;;;;;;1.02;0.50;;;;;;;;;;6246488;22;20118;-54
2022/09/18 13:54:16;;;;;;;1.38;0.25;;;;;;;;;;6270040;22;20031;-57
2022/09/18 13:57:02;;;;;;;0.25;0.25;;;;;;;;;;6271290;22;20030;-60
2022/09/18 13:59:54;;;;;;;0.73;0.30;;;;;;;;;;6270743;22;20016;-60
2022/09/18 14:02:22;;;;;;;1.38;0.40;;;;;;;;;;6268811;22;20396;-60
2022/09/18 14:05:01;;;;;;;1.58;0.43;;;;;;;;;;6269729;22;20594;-62
2022/09/18 14:07:32;;;;;;;0.63;0.43;;;;;;;;;;6270833;22;20473;-60
2022/09/18 14:10:19;;;;;;;0.32;0.32;;;;;;;;;;6270116;22;20024;-61
2022/09/18 14:13:03;;;;;;;0.65;0.40;;;;;;;;;;6268958;22;20742;-57
2022/09/18 14:16:02;;;;;;;1.48;0.60;;;;;;;;;;6240035;23;20099;-55
2022/09/18 14:18:48;;;;;;;0.63;0.50;;;;;;;;;;6240040;23;20038;-58
2022/09/18 14:21:18;;;;;;;3.15;0.50;;;;;;;;;;6240794;23;20103;-55
2022/09/18 14:24:02;;;;;;;0.90;0.40;;;;;;;;;;6236384;23;20366;-56
2022/09/18 14:26:30;;;;;;;;;;;;;;;;;;6239488;23;20028;-53
2022/09/18 14:29:11;;;;;;;0.47;0.40;;;;;;;;;;6240446;23;19919;-55
2022/09/18 14:31:44;;;;;;;0.60;0.50;;;;;;;;;;6239862;23;20030;-64
2022/09/18 14:34:30;;;;;;;3.78;0.70;;;;;;;;;;6216666;23;20047;-50
2022/09/18 14:36:59;;;;;;;0.43;0.43;;;;;;;;;;6239227;23;20410;-49
2022/09/18 14:39:37;;;;;;;0.40;0.40;;;;;;;;;;6240520;23;20051;-46
2022/09/18 14:42:07;;;;;;;0.52;0.30;;;;;;;;;;6238535;23;20026;-48
2022/09/18 14:44:47;;;;;;;0.52;0.45;;;;;;;;;;6239625;23;20020;-49
2022/09/18 14:47:20;;;;;;;0.47;0.45;;;;;;;;;;6240015;23;20035;-46
2022/09/18 14:49:54;;;;;;;1.13;0.40;;;;;;;;;;6239391;23;20625;-64
2022/09/18 14:52:23;;;;;;;1.52;0.45;;;;;;;;;;6240504;23;20027;-64
2022/09/18 14:54:58;;;;;;;0.70;0.47;;;;;;;;;;6240209;23;20016;-65
2022/09/18 14:57:27;;;;;;;0.52;0.47;;;;;;;;;;6238187;23;20572;-65
2022/09/18 14:59:57;;;;;;;1.23;0.50;;;;;;;;;;6237537;23;20028;-64
2022/09/18 15:02:33;;;;;;;5.35;0.57;;;;;;;;;;6235380;23;20399;-65
2022/09/18 15:05:02;;;;;;;1.38;1.02;;;;;;;;;;6240426;23;20024;-64
2022/09/18 15:07:39;;;;;;;0.57;0.22;;;;;;;;;;6238616;23;20095;-54
2022/09/18 15:10:08;;;;;;;0.43;0.43;;;;;;;;;;6239146;23;20481;-53
2022/09/18 15:12:36;;;;;;;0.47;0.40;;;;;;;;;;6237609;23;20651;-64
2022/09/18 15:15:35;;;;;;;0.90;0.47;;;;;;;;;;6261997;22;20028;-65
2022/09/18 15:18:02;;;;;;;0.30;0.30;;;;;;;;;;6270839;22;20020;-64
2022/09/18 15:20:37;;;;;;;0.50;0.50;;;;;;;;;;6270650;22;20030;-65
2022/09/18 15:23:27;;;;;;;2.53;0.40;;;;;;;;;;6267809;22;20024;-65
2022/09/18 15:25:57;;;;;;;0.75;0.40;;;;;;;;;;6259239;22;20019;-72
2022/09/18 15:28:34;;;;;;;0.38;0.35;;;;;;;;;;6244405;22;20019;-46
2022/09/18 15:31:03;;;;;;;1.15;0.28;;;;;;;;;;6269073;22;20024;-56